Time;durP1;ratioP1;P1;durP2;ratioP2;P2;SDS_P1;SDS_P2;PMS_P1;PMS_P2;Temp;Humidity;BMP_temperature;BMP_pressure;BME280_temperature;BME280_humidity;BME280_pressure;Samples;Min_cycle;Max_cycle;Signal;HPM_P1;HPM_P2
2023/01/07 00:01:36;;;;;;;21.02;8.07;;;;;;;7.40;78.83;100549.34;4429633;32;33994;-86
2023/01/07 00:04:06;;;;;;;20.90;8.48;;;;;;;7.41;78.73;100548.53;4419217;32;33750;-85
2023/01/07 00:06:35;;;;;;;18.42;8.20;;;;;;;7.55;78.28;100547.81;4431176;32;33379;-85
2023/01/07 00:09:05;;;;;;;18.65;9.15;;;;;;;7.35;79.44;100549.00;4446036;32;34632;-85
2023/01/07 00:11:38;;;;;;;17.77;8.10;;;;;;;7.37;78.80;100549.13;4431463;32;32193;-86
2023/01/07 00:14:09;;;;;;;17.05;7.70;;;;;;;6.96;80.42;100562.56;4419417;32;33059;-86
2023/01/07 00:16:37;;;;;;;20.75;8.38;;;;;;;7.67;77.28;100553.81;4425864;32;33920;-85
2023/01/07 00:19:06;;;;;;;19.87;8.10;;;;;;;6.78;80.78;100557.91;4433045;32;33394;-85
2023/01/07 00:21:34;;;;;;;18.10;8.63;;;;;;;7.07;81.18;100566.81;4433445;32;33162;-85
2023/01/07 00:24:04;;;;;;;23.23;9.30;;;;;;;7.29;79.88;100562.34;4431443;32;32339;-86
2023/01/07 00:26:36;;;;;;;21.25;8.00;;;;;;;7.92;75.28;100563.22;4431185;32;33375;-85
2023/01/07 00:29:05;;;;;;;17.00;7.90;;;;;;;8.36;74.20;100570.41;4419390;32;34636;-86
2023/01/07 00:31:35;;;;;;;19.77;8.07;;;;;;;7.04;79.50;100569.16;4430539;32;32375;-85
2023/01/07 00:36:43;;;;;;;16.87;8.85;;;;;;;7.18;80.88;100564.97;4431848;32;33449;-85
2023/01/07 00:39:11;;;;;;;18.25;9.13;;;;;;;7.30;80.55;100570.97;4421423;32;33643;-86
2023/01/07 00:41:39;;;;;;;17.65;8.90;;;;;;;7.23;80.54;100574.81;4431492;32;32826;-86
2023/01/07 00:44:07;;;;;;;20.73;9.00;;;;;;;7.41;79.81;100569.16;4428644;32;33180;-85
2023/01/07 00:46:34;;;;;;;19.62;9.30;;;;;;;7.63;78.94;100575.03;4429357;32;34264;-85
2023/01/07 00:49:02;;;;;;;19.80;8.32;;;;;;;8.94;74.68;100565.56;4422737;32;34022;-86
2023/01/07 00:51:30;;;;;;;24.23;9.98;;;;;;;8.33;76.04;100565.06;4431465;32;33835;-85
2023/01/07 00:53:57;;;;;;;17.60;8.43;;;;;;;8.33;76.15;100567.66;4436146;32;33289;-85
2023/01/07 00:56:25;;;;;;;23.02;10.73;;;;;;;7.95;77.64;100576.31;4417631;32;31995;-86
2023/01/07 00:58:53;;;;;;;25.62;10.95;;;;;;;8.16;76.58;100570.81;4422429;32;33704;-86
2023/01/07 01:01:20;;;;;;;22.02;10.80;;;;;;;7.81;78.16;100577.06;4428716;32;34768;-85
2023/01/07 01:03:48;;;;;;;17.05;9.18;;;;;;;9.15;74.13;100568.63;4434074;32;34246;-85
2023/01/07 01:06:16;;;;;;;18.35;8.63;;;;;;;8.71;73.63;100571.88;4432684;32;33539;-86
2023/01/07 01:08:45;;;;;;;16.87;9.35;;;;;;;8.32;75.34;100576.19;4426962;32;33614;-86
2023/01/07 01:11:14;;;;;;;23.73;10.32;;;;;;;8.45;73.25;100573.66;4422785;32;33735;-86
2023/01/07 01:13:43;;;;;;;17.12;9.45;;;;;;;7.49;78.44;100568.00;4408650;32;33613;-85
2023/01/07 01:16:13;;;;;;;17.75;8.82;;;;;;;8.36;75.43;100567.84;4427021;32;33798;-85
2023/01/07 01:18:42;;;;;;;22.85;10.80;;;;;;;7.65;78.35;100569.97;4431661;32;34787;-85
2023/01/07 01:21:13;;;;;;;24.75;11.88;;;;;;;7.62;79.05;100570.62;4431279;32;33567;-85
2023/01/07 01:23:41;;;;;;;17.05;8.57;;;;;;;10.20;69.76;100564.59;4428961;32;34923;-86
2023/01/07 01:26:12;;;;;;;19.30;9.05;;;;;;;10.96;63.66;100556.84;4425062;32;33091;-85
2023/01/07 01:28:40;;;;;;;22.52;9.45;;;;;;;8.68;72.39;100561.34;4422497;32;33567;-85
2023/01/07 01:31:09;;;;;;;16.10;8.52;;;;;;;7.50;78.61;100568.91;4430772;32;33889;-85
2023/01/07 01:33:38;;;;;;;21.12;8.73;;;;;;;7.84;78.17;100569.50;4431952;32;33597;-85
2023/01/07 01:36:09;;;;;;;21.52;8.50;;;;;;;7.79;78.39;100568.34;4426760;32;34000;-85
2023/01/07 01:38:37;;;;;;;19.55;8.93;;;;;;;8.19;77.06;100565.81;4444603;32;34100;-86
2023/01/07 01:41:05;;;;;;;24.17;9.43;;;;;;;7.51;79.74;100566.41;4428870;32;34643;-85
2023/01/07 01:43:35;;;;;;;18.70;8.68;;;;;;;7.37;81.58;100557.72;4436581;32;33899;-85
2023/01/07 01:46:26;;;;;;;15.65;7.90;;;;;;;7.43;81.49;100559.84;4426825;32;33186;-85
2023/01/07 01:48:59;;;;;;;16.23;8.38;;;;;;;7.60;81.52;100561.00;4416366;32;34699;-84
2023/01/07 01:51:33;;;;;;;20.27;9.15;;;;;;;7.75;80.31;100551.75;4417208;32;33135;-86
2023/01/07 01:54:03;;;;;;;14.63;8.52;;;;;;;7.81;80.90;100551.28;4433229;32;34408;-85
2023/01/07 01:56:34;;;;;;;15.57;8.25;;;;;;;7.70;80.32;100558.25;4431154;32;32746;-86
2023/01/07 01:59:05;;;;;;;19.08;8.00;;;;;;;8.38;75.72;100532.72;4435443;32;34285;-85
2023/01/07 02:01:35;;;;;;;22.25;8.82;;;;;;;7.15;81.64;100539.88;4415005;32;33478;-85
2023/01/07 02:04:08;;;;;;;18.48;8.82;;;;;;;7.23;81.37;100538.75;4422311;32;33982;-85
2023/01/07 02:06:41;;;;;;;17.95;8.68;;;;;;;7.35;81.51;100537.81;4424125;32;33707;-86
2023/01/07 02:09:12;;;;;;;18.80;9.30;;;;;;;7.66;80.21;100533.94;4423281;32;33684;-86
2023/01/07 02:12:00;;;;;;;17.80;8.55;;;;;;;7.40;81.12;100536.44;4431386;32;33973;-85
2023/01/07 02:14:43;;;;;;;18.12;8.75;;;;;;;7.08;83.37;100537.66;4438795;32;34177;-85
2023/01/07 02:17:32;;;;;;;16.08;8.85;;;;;;;7.34;82.60;100536.00;4421749;32;33674;-85
2023/01/07 02:20:24;;;;;;;16.90;8.70;;;;;;;7.26;81.98;100535.47;4421680;32;33960;-85
2023/01/07 02:23:07;;;;;;;16.02;8.95;;;;;;;7.11;82.92;100522.44;4436594;32;33752;-85
2023/01/07 02:25:50;;;;;;;18.67;8.95;;;;;;;7.19;83.08;100526.44;4428772;32;34080;-85
2023/01/07 02:29:00;;;;;;;24.60;9.65;;;;;;;7.00;84.26;100523.34;4411655;32;32870;-85
2023/01/07 02:32:05;;;;;;;21.17;8.98;;;;;;;7.47;81.89;100529.25;4421731;32;33897;-86
2023/01/07 02:34:51;;;;;;;20.10;10.68;;;;;;;7.35;81.62;100522.34;4421807;32;33618;-85
2023/01/07 02:37:51;;;;;;;19.42;10.25;;;;;;;7.15;82.25;100521.84;4432667;32;34709;-84
2023/01/07 02:40:19;;;;;;;18.80;9.35;;;;;;;7.26;82.58;100523.50;4426404;32;33607;-86
2023/01/07 02:42:56;;;;;;;22.52;9.20;;;;;;;7.70;80.06;100527.31;4436989;32;33832;-86
2023/01/07 02:45:47;;;;;;;19.58;9.32;;;;;;;7.00;83.09;100533.66;4432689;32;34754;-85
2023/01/07 02:48:17;;;;;;;17.77;10.40;;;;;;;7.31;81.48;100533.22;4433098;32;34777;-85
2023/01/07 02:50:45;;;;;;;18.42;9.55;;;;;;;6.81;83.47;100527.19;4433895;32;32887;-85
2023/01/07 02:53:16;;;;;;;18.58;9.48;;;;;;;9.74;71.07;100520.47;4432853;32;33826;-85
2023/01/07 02:56:06;;;;;;;16.02;8.98;;;;;;;8.12;75.44;100527.53;4435235;32;33464;-85
2023/01/07 02:58:52;;;;;;;17.25;9.77;;;;;;;6.79;82.11;100526.19;4427847;32;34766;-85
2023/01/07 03:01:29;;;;;;;22.30;10.07;;;;;;;6.24;86.19;100527.38;4428030;32;33608;-86
2023/01/07 03:04:16;;;;;;;22.35;10.57;;;;;;;6.79;83.68;100527.88;4433885;32;33939;-85
2023/01/07 03:07:45;;;;;;;20.08;10.00;;;;;;;8.53;76.55;100521.63;4436579;32;33987;-85
2023/01/07 03:10:37;;;;;;;21.65;10.13;;;;;;;10.41;66.44;100508.91;4408143;32;33377;-85
2023/01/07 03:13:16;;;;;;;21.45;11.38;;;;;;;8.78;70.47;100512.03;4416208;32;33114;-86
2023/01/07 03:15:56;;;;;;;23.73;12.20;;;;;;;8.40;74.17;100513.06;4426199;32;33608;-86
2023/01/07 03:18:27;;;;;;;21.48;11.00;;;;;;;7.82;75.83;100516.94;4427549;32;34469;-85
2023/01/07 03:21:03;;;;;;;21.58;11.07;;;;;;;7.64;76.50;100511.44;4426652;32;34627;-86
2023/01/07 03:23:31;;;;;;;20.67;10.48;;;;;;;9.19;71.11;100503.41;4407365;32;32191;-85
2023/01/07 03:26:02;;;;;;;18.98;10.52;;;;;;;10.50;64.17;100497.25;4419720;32;33526;-85
2023/01/07 03:28:34;;;;;;;19.83;11.27;;;;;;;10.27;63.98;100494.22;4425321;32;34517;-86
2023/01/07 03:31:03;;;;;;;21.25;11.45;;;;;;;9.97;65.20;100502.03;4432281;32;34133;-85
2023/01/07 03:33:59;;;;;;;24.83;12.32;;;;;;;10.64;62.81;100493.72;4422577;32;33356;-84
2023/01/07 03:36:32;;;;;;;23.70;13.65;;;;;;;8.92;68.41;100500.00;4417803;32;34279;-85
2023/01/07 03:39:00;;;;;;;25.12;13.10;;;;;;;7.09;78.92;100513.72;4429810;32;33912;-85
2023/01/07 03:44:15;;;;;;;23.85;12.88;;;;;;;6.33;84.52;100503.97;4424560;32;33585;-85
2023/01/07 03:46:43;;;;;;;28.65;14.27;;;;;;;6.58;84.42;100506.62;4436117;32;34613;-85
2023/01/07 03:49:11;;;;;;;24.80;13.57;;;;;;;6.93;82.26;100493.69;4434716;32;34012;-85
2023/01/07 03:51:40;;;;;;;28.27;14.02;;;;;;;6.82;82.81;100502.34;4427191;32;33631;-86
2023/01/07 03:54:07;;;;;;;29.37;13.45;;;;;;;7.40;80.69;100496.09;4427588;32;34152;-85
2023/01/07 03:56:35;;;;;;;25.08;12.70;;;;;;;7.06;81.24;100501.47;4424252;32;34250;-86
2023/01/07 03:59:03;;;;;;;24.58;13.20;;;;;;;7.62;79.34;100506.19;4425946;32;34136;-86
2023/01/07 04:01:31;;;;;;;27.48;13.75;;;;;;;7.45;79.26;100504.13;4423735;32;34901;-85
2023/01/07 04:03:59;;;;;;;24.67;12.13;;;;;;;7.92;76.97;100498.72;4418641;32;33463;-85
2023/01/07 04:06:29;;;;;;;24.27;12.50;;;;;;;7.46;78.10;100500.78;4447092;32;33925;-85
2023/01/07 04:08:57;;;;;;;24.73;11.93;;;;;;;7.25;78.61;100510.50;4437454;32;33729;-86
2023/01/07 04:11:25;;;;;;;27.10;12.20;;;;;;;7.48;77.74;100505.25;4428975;32;34241;-85
2023/01/07 04:13:55;;;;;;;24.05;11.50;;;;;;;7.33;77.91;100505.88;4436438;32;33634;-86
2023/01/07 04:16:23;;;;;;;23.77;11.43;;;;;;;7.27;78.52;100504.66;4436535;32;34262;-85
2023/01/07 04:18:51;;;;;;;21.40;11.18;;;;;;;7.41;77.58;100507.28;4437815;32;33368;-85
2023/01/07 04:21:19;;;;;;;24.27;11.12;;;;;;;7.28;78.50;100509.03;4423876;32;34912;-85
2023/01/07 04:23:47;;;;;;;23.90;11.68;;;;;;;6.90;79.14;100501.22;4431422;32;34177;-85
2023/01/07 04:26:15;;;;;;;21.15;12.35;;;;;;;6.42;79.72;100500.38;4425258;32;33763;-85
2023/01/07 04:28:42;;;;;;;25.62;12.50;;;;;;;6.18;80.90;100498.59;4436168;32;34037;-85
2023/01/07 04:31:10;;;;;;;24.35;11.70;;;;;;;6.18;81.58;100503.72;4427027;32;32804;-86
2023/01/07 04:33:39;;;;;;;24.73;12.07;;;;;;;5.90;82.58;100504.25;4430660;32;33598;-85
2023/01/07 04:36:07;;;;;;;22.15;12.00;;;;;;;5.34;85.27;100506.88;4427978;32;33549;-85
2023/01/07 04:38:36;;;;;;;25.75;13.82;;;;;;;4.78;88.60;100511.97;4432449;32;33598;-85
2023/01/07 04:41:04;;;;;;;27.27;13.85;;;;;;;4.97;89.37;100513.44;4431908;32;35008;-84
2023/01/07 04:43:34;;;;;;;31.20;14.85;;;;;;;4.70;90.71;100510.47;4413218;32;32481;-85
2023/01/07 04:46:02;;;;;;;27.02;14.63;;;;;;;4.84;90.17;100514.13;4433418;32;33136;-85
2023/01/07 04:48:30;;;;;;;27.23;15.50;;;;;;;6.11;83.54;100512.69;4435546;32;34477;-85
2023/01/07 04:50:59;;;;;;;28.27;14.15;;;;;;;6.13;85.06;100505.09;4433507;32;33625;-85
2023/01/07 04:53:26;;;;;;;22.05;11.60;;;;;;;8.11;77.26;100505.09;4436172;32;34600;-85
2023/01/07 04:55:54;;;;;;;21.87;11.38;;;;;;;9.43;71.17;100503.12;4436613;32;34581;-86
2023/01/07 04:58:22;;;;;;;23.42;11.25;;;;;;;10.32;67.13;100498.00;4435330;32;33991;-85
2023/01/07 05:00:52;;;;;;;20.50;10.98;;;;;;;10.27;66.28;100499.41;4423504;32;34069;-85
2023/01/07 05:03:21;;;;;;;20.73;10.77;;;;;;;10.27;65.22;100506.28;4428397;32;32934;-85
2023/01/07 05:05:49;;;;;;;19.37;10.82;;;;;;;10.34;64.28;100506.75;4426876;32;34240;-86
2023/01/07 05:08:17;;;;;;;22.80;10.82;;;;;;;9.53;64.67;100505.44;4442862;32;33497;-85
2023/01/07 05:10:44;;;;;;;20.37;10.18;;;;;;;7.64;69.51;100512.31;4434213;32;34515;-85
2023/01/07 05:13:16;;;;;;;20.15;10.48;;;;;;;6.48;75.50;100516.25;4435841;32;33740;-86
2023/01/07 05:15:45;;;;;;;21.95;11.20;;;;;;;7.32;73.77;100516.97;4423685;32;33693;-86
2023/01/07 05:18:13;;;;;;;25.17;11.65;;;;;;;8.43;69.24;100510.69;4430295;32;34053;-85
2023/01/07 05:20:42;;;;;;;20.98;11.55;;;;;;;7.63;72.62;100520.88;4436627;32;33628;-85
2023/01/07 05:23:10;;;;;;;23.00;11.60;;;;;;;7.09;73.27;100518.84;4428138;32;33539;-86
2023/01/07 05:25:38;;;;;;;24.23;12.70;;;;;;;5.41;81.59;100518.50;4424403;32;33369;-86
2023/01/07 05:28:05;;;;;;;26.30;12.85;;;;;;;4.95;85.01;100525.25;4430321;32;34325;-85
2023/01/07 05:30:33;;;;;;;30.58;14.15;;;;;;;5.15;85.91;100525.13;4433843;32;33752;-84
2023/01/07 05:33:05;;;;;;;27.00;12.68;;;;;;;5.84;82.16;100526.94;4432459;32;33459;-85
2023/01/07 05:35:34;;;;;;;25.98;12.93;;;;;;;5.47;81.78;100534.44;4432757;32;34096;-85
2023/01/07 05:38:02;;;;;;;23.73;11.88;;;;;;;4.71;84.83;100535.34;4432920;32;33862;-86
2023/01/07 05:40:29;;;;;;;27.20;14.57;;;;;;;5.57;80.84;100531.78;4415996;32;34156;-85
2023/01/07 05:42:57;;;;;;;26.70;14.50;;;;;;;5.24;83.05;100541.25;4433737;32;33836;-85
2023/01/07 05:45:25;;;;;;;23.30;12.85;;;;;;;6.75;77.68;100536.19;4426482;32;33451;-85
2023/01/07 05:47:53;;;;;;;26.25;12.65;;;;;;;6.75;75.35;100539.63;4418681;32;31950;-85
2023/01/07 05:50:20;;;;;;;23.25;12.77;;;;;;;6.57;74.81;100531.50;4429076;32;34094;-85
2023/01/07 05:52:50;;;;;;;24.37;13.57;;;;;;;6.60;74.70;100534.28;4432831;32;34087;-85
2023/01/07 05:55:18;;;;;;;29.60;14.77;;;;;;;6.54;75.12;100530.38;4416663;32;31948;-85
2023/01/07 05:57:45;;;;;;;23.40;14.60;;;;;;;7.37;72.48;100537.12;4421499;32;34624;-85
2023/01/07 06:00:13;;;;;;;24.77;13.88;;;;;;;7.48;72.86;100535.28;4433541;32;34111;-86
2023/01/07 06:02:44;;;;;;;22.98;13.82;;;;;;;7.62;71.69;100541.38;4420708;32;33383;-85
2023/01/07 06:05:12;;;;;;;23.15;12.48;;;;;;;7.26;73.56;100533.81;4425540;32;33175;-85
2023/01/07 06:07:39;;;;;;;20.50;11.90;;;;;;;6.89;75.29;100530.31;4424943;32;33625;-85
2023/01/07 06:10:07;;;;;;;24.35;12.77;;;;;;;6.84;76.38;100535.16;4431483;32;34107;-85
2023/01/07 06:12:34;;;;;;;25.85;15.85;;;;;;;6.22;78.12;100532.37;4424778;32;33806;-85
2023/01/07 06:15:03;;;;;;;23.12;12.95;;;;;;;5.96;79.07;100527.88;4448049;32;33639;-85
2023/01/07 06:17:30;;;;;;;21.67;11.93;;;;;;;7.00;74.70;100525.94;4422696;32;34412;-86
2023/01/07 06:19:58;;;;;;;28.05;14.15;;;;;;;6.54;76.67;100526.09;4426024;32;34460;-85
2023/01/07 06:22:26;;;;;;;22.35;12.40;;;;;;;6.37;75.84;100530.03;4425800;32;34339;-85
2023/01/07 06:24:53;;;;;;;23.23;12.00;;;;;;;6.45;74.33;100521.22;4430942;32;33620;-85
2023/01/07 06:27:21;;;;;;;22.42;13.15;;;;;;;6.99;71.86;100526.69;4426945;32;33432;-85
2023/01/07 06:29:48;;;;;;;18.35;10.85;;;;;;;8.62;66.24;100517.06;4421901;32;34156;-85
2023/01/07 06:32:16;;;;;;;23.65;10.88;;;;;;;10.71;57.38;100506.22;4421484;32;33243;-85
2023/01/07 06:34:44;;;;;;;19.15;9.10;;;;;;;11.47;54.49;100518.06;4445692;32;34749;-85
2023/01/07 06:37:13;;;;;;;19.40;10.10;;;;;;;9.44;58.24;100520.41;4433833;32;33456;-85
2023/01/07 06:39:41;;;;;;;21.27;10.93;;;;;;;6.18;71.63;100525.22;4440069;32;32260;-85
2023/01/07 06:42:09;;;;;;;24.10;11.15;;;;;;;4.87;80.08;100525.53;4421058;32;33500;-86
2023/01/07 06:44:36;;;;;;;21.12;11.07;;;;;;;5.60;78.21;100511.47;4435965;32;32439;-87
2023/01/07 06:50:11;;;;;;;18.55;10.02;;;;;;;7.64;71.44;100522.63;4288160;27;34963;-83
2023/01/07 06:52:39;;;;;;;18.40;9.80;;;;;;;10.68;58.63;100512.94;4437197;32;33359;-84
2023/01/07 06:55:08;;;;;;;18.77;10.02;;;;;;;10.78;57.84;100516.13;4440156;32;32693;-83
2023/01/07 06:57:35;;;;;;;18.30;8.85;;;;;;;11.39;55.78;100522.84;4428501;32;34644;-83
2023/01/07 07:00:03;;;;;;;17.25;9.52;;;;;;;10.59;57.54;100519.38;4417512;32;33512;-83
2023/01/07 07:02:31;;;;;;;16.95;9.80;;;;;;;7.15;68.63;100529.59;4435262;32;32924;-83
2023/01/07 07:05:02;;;;;;;21.30;10.85;;;;;;;6.05;74.91;100540.53;4437707;32;33390;-84
2023/01/07 07:07:29;;;;;;;21.77;11.30;;;;;;;5.48;78.65;100539.66;4441760;32;33236;-83
2023/01/07 07:09:57;;;;;;;20.90;13.07;;;;;;;5.81;77.78;100548.13;4449556;32;34812;-83
2023/01/07 07:12:25;;;;;;;31.50;17.62;;;;;;;5.22;81.39;100541.91;4434810;32;33885;-83
2023/01/07 07:14:52;;;;;;;30.35;15.13;;;;;;;5.74;79.94;100545.91;4431413;32;34090;-84
2023/01/07 07:17:20;;;;;;;35.08;16.65;;;;;;;6.33;77.91;100546.03;4448643;32;33742;-83
2023/01/07 07:19:48;;;;;;;34.70;17.83;;;;;;;7.26;74.40;100548.34;4446659;32;34390;-83
2023/01/07 07:22:16;;;;;;;26.60;15.02;;;;;;;6.25;77.38;100552.28;4422317;32;33301;-83
2023/01/07 07:24:44;;;;;;;25.60;13.55;;;;;;;5.46;82.53;100553.19;4449870;32;34207;-83
2023/01/07 07:27:11;;;;;;;22.65;12.02;;;;;;;5.47;83.90;100560.13;4451880;32;33478;-83
2023/01/07 07:29:39;;;;;;;24.55;12.27;;;;;;;5.06;86.13;100560.34;4441084;32;34580;-83
2023/01/07 07:32:07;;;;;;;23.98;12.27;;;;;;;5.83;83.29;100561.12;4449793;32;33844;-83
2023/01/07 07:34:35;;;;;;;21.95;11.88;;;;;;;6.80;79.59;100564.03;4441478;32;34421;-83
2023/01/07 07:37:03;;;;;;;21.02;10.95;;;;;;;6.84;79.82;100562.59;4452647;32;33772;-83
2023/01/07 07:39:30;;;;;;;21.50;11.52;;;;;;;6.94;77.86;100559.00;4424959;32;33668;-83
2023/01/07 07:42:01;;;;;;;22.42;9.98;;;;;;;6.53;79.62;100559.44;4453958;32;32292;-84
2023/01/07 07:44:30;;;;;;;22.42;10.00;;;;;;;6.76;79.09;100559.47;4450208;32;34038;-83
2023/01/07 07:46:57;;;;;;;18.30;9.77;;;;;;;7.18;78.11;100555.53;4455475;32;33464;-83
2023/01/07 07:49:25;;;;;;;19.40;9.60;;;;;;;7.20;77.85;100559.13;4447004;32;34549;-83
2023/01/07 07:51:54;;;;;;;22.58;11.70;;;;;;;7.22;79.37;100554.09;4455701;32;33834;-84
2023/01/07 07:54:22;;;;;;;17.80;11.18;;;;;;;7.63;79.02;100567.28;4452453;32;33549;-84
2023/01/07 07:56:50;;;;;;;21.35;10.63;;;;;;;7.81;78.82;100559.00;4445785;32;33475;-83
2023/01/07 07:59:18;;;;;;;18.87;9.88;;;;;;;8.22;77.19;100560.88;4444405;32;34165;-83
2023/01/07 08:01:45;;;;;;;22.60;11.05;;;;;;;9.63;71.22;100549.16;4440903;32;32676;-83
2023/01/07 08:04:15;;;;;;;19.42;10.40;;;;;;;8.54;74.54;100554.41;4450405;32;34605;-84
2023/01/07 08:06:42;;;;;;;20.00;9.63;;;;;;;9.13;73.76;100554.72;4450600;32;33995;-83
2023/01/07 08:09:10;;;;;;;18.25;9.23;;;;;;;8.85;76.06;100552.97;4457177;32;33673;-84
2023/01/07 08:11:38;;;;;;;19.35;9.07;;;;;;;10.13;70.59;100554.69;4453050;32;33884;-83
2023/01/07 08:14:05;;;;;;;18.33;9.48;;;;;;;11.07;67.31;100545.34;4452353;32;34680;-84
2023/01/07 08:16:33;;;;;;;18.65;9.35;;;;;;;10.22;69.77;100557.81;4449037;32;34168;-84
2023/01/07 08:19:00;;;;;;;20.15;10.13;;;;;;;9.78;72.00;100548.31;4435942;32;34215;-84
2023/01/07 08:21:28;;;;;;;17.60;9.73;;;;;;;9.42;74.21;100558.22;4454979;32;33707;-83
2023/01/07 08:23:55;;;;;;;20.33;10.18;;;;;;;9.99;71.36;100554.75;4453213;32;34067;-83
2023/01/07 08:26:23;;;;;;;16.08;9.40;;;;;;;9.22;74.80;100549.22;4453533;32;34646;-83
2023/01/07 08:28:51;;;;;;;16.67;10.07;;;;;;;8.97;76.04;100547.69;4460182;32;34212;-83
2023/01/07 08:31:18;;;;;;;18.92;10.48;;;;;;;8.83;76.75;100546.81;4455074;32;34719;-83
2023/01/07 08:33:46;;;;;;;20.40;11.32;;;;;;;8.64;78.37;100541.28;4457233;32;33197;-84
2023/01/07 08:36:13;;;;;;;20.95;11.80;;;;;;;8.70;79.25;100545.94;4447615;32;34526;-84
2023/01/07 08:38:51;;;;;;;20.45;11.20;;;;;;;8.70;79.04;100541.66;4455716;32;34681;-84
2023/01/07 08:41:22;;;;;;;17.73;9.52;;;;;;;9.82;75.74;100539.94;4452522;32;33439;-83
2023/01/07 08:43:52;;;;;;;17.55;9.27;;;;;;;10.07;74.84;100531.03;4456056;32;33844;-84
2023/01/07 08:46:19;;;;;;;18.17;9.93;;;;;;;10.67;72.12;100537.97;4448404;32;34745;-84
2023/01/07 08:48:48;;;;;;;15.82;9.05;;;;;;;11.55;67.80;100530.62;4457896;32;33961;-84
2023/01/07 08:51:16;;;;;;;18.67;8.85;;;;;;;11.15;69.49;100527.63;4450839;32;33616;-84
2023/01/07 08:53:43;;;;;;;17.58;10.02;;;;;;;9.91;73.46;100535.31;4433720;32;33951;-84
2023/01/07 08:56:11;;;;;;;18.30;9.27;;;;;;;9.58;76.62;100529.91;4442042;32;35409;-84
2023/01/07 08:58:39;;;;;;;17.92;9.93;;;;;;;10.36;75.17;100523.28;4458909;32;34099;-85
2023/01/07 09:01:07;;;;;;;18.27;9.70;;;;;;;10.07;75.42;100523.28;4458798;32;33067;-85
2023/01/07 09:03:35;;;;;;;19.30;10.27;;;;;;;9.93;75.48;100523.34;4457915;32;33838;-84
2023/01/07 09:06:03;;;;;;;15.43;9.90;;;;;;;10.64;74.55;100524.81;4445002;32;34759;-85
2023/01/07 09:08:30;;;;;;;14.30;8.57;;;;;;;11.30;70.01;100524.94;4458916;32;33813;-84
2023/01/07 09:10:58;;;;;;;14.65;8.98;;;;;;;13.74;61.86;100518.63;4451078;32;33427;-84
2023/01/07 09:13:26;;;;;;;17.33;8.98;;;;;;;14.73;58.11;100513.16;4447489;32;33443;-84
2023/01/07 09:15:53;;;;;;;19.08;9.05;;;;;;;12.50;65.65;100524.19;4458779;32;33619;-84
2023/01/07 09:18:21;;;;;;;16.25;7.90;;;;;;;11.54;70.98;100523.66;4453131;32;34963;-84
2023/01/07 09:20:49;;;;;;;13.52;7.97;;;;;;;12.58;65.44;100512.44;4438066;32;33971;-84
2023/01/07 09:23:17;;;;;;;13.62;7.15;;;;;;;11.95;68.86;100517.12;4446289;32;34069;-84
2023/01/07 09:25:44;;;;;;;12.60;7.07;;;;;;;13.57;63.47;100512.66;4459156;32;34104;-84
2023/01/07 09:28:12;;;;;;;19.42;8.02;;;;;;;13.88;61.60;100513.12;4437148;32;32485;-84
2023/01/07 09:30:39;;;;;;;14.75;7.78;;;;;;;12.81;64.45;100514.38;4452758;32;33733;-84
2023/01/07 09:33:07;;;;;;;15.52;7.60;;;;;;;13.38;63.60;100512.69;4439004;32;33803;-84
2023/01/07 09:35:34;;;;;;;13.57;7.32;;;;;;;11.83;68.20;100515.59;4449825;32;34848;-84
2023/01/07 09:38:02;;;;;;;13.62;7.72;;;;;;;14.15;60.70;100506.44;4450240;32;33753;-85
2023/01/07 09:40:39;;;;;;;12.77;7.43;;;;;;;15.56;55.85;100493.63;4450167;32;34521;-84
2023/01/07 09:43:16;;;;;;;13.60;8.02;;;;;;;11.77;68.25;100510.97;4436584;32;33849;-83
2023/01/07 09:46:04;;;;;;;14.65;7.75;;;;;;;13.72;62.74;100496.84;4431508;32;32611;-82
2023/01/07 09:48:44;;;;;;;17.75;7.87;;;;;;;12.96;63.81;100491.66;4442331;32;34062;-83
2023/01/07 09:51:22;;;;;;;15.10;8.50;;;;;;;13.35;63.49;100491.75;4448842;32;34503;-84
2023/01/07 09:53:53;;;;;;;18.83;8.35;;;;;;;14.27;59.49;100487.81;4439910;32;33892;-83
2023/01/07 09:56:27;;;;;;;16.90;8.52;;;;;;;15.89;54.87;100476.53;4448741;32;34928;-83
2023/01/07 09:58:56;;;;;;;14.20;8.25;;;;;;;13.71;61.01;100479.44;4438931;32;34095;-83
2023/01/07 10:01:33;;;;;;;16.30;8.25;;;;;;;15.27;57.04;100477.78;4452920;32;33962;-83
2023/01/07 10:04:25;;;;;;;15.80;8.52;;;;;;;15.20;57.13;100475.78;4451395;32;33532;-83
2023/01/07 10:07:30;;;;;;;16.35;8.82;;;;;;;15.72;55.26;100462.88;4447194;32;33693;-83
2023/01/07 10:10:27;;;;;;;15.65;8.40;;;;;;;16.15;53.77;100459.94;4449668;32;34931;-82
2023/01/07 10:13:26;;;;;;;13.90;8.38;;;;;;;16.16;52.72;100459.12;4451062;32;34090;-83
2023/01/07 10:15:57;;;;;;;15.40;8.85;;;;;;;13.30;62.20;100464.63;4452022;32;34070;-83
2023/01/07 10:18:32;;;;;;;16.05;8.80;;;;;;;14.61;58.68;100457.94;4456386;32;33902;-82
2023/01/07 10:21:41;;;;;;;15.82;8.52;;;;;;;15.32;57.26;100455.38;4434048;32;34114;-83
2023/01/07 10:24:20;;;;;;;13.05;8.20;;;;;;;15.74;55.28;100455.13;4450964;32;33179;-83
2023/01/07 10:26:51;;;;;;;19.90;10.15;;;;;;;15.33;56.78;100451.91;4442453;32;33773;-82
2023/01/07 10:29:27;;;;;;;17.12;9.43;;;;;;;15.64;56.40;100450.37;4440409;32;34408;-83
2023/01/07 10:31:58;;;;;;;104.43;16.08;;;;;;;15.71;56.09;100445.44;4449249;32;33390;-84
2023/01/07 10:34:35;;;;;;;24.73;8.38;;;;;;;16.06;55.54;100437.03;4452060;32;32789;-83
2023/01/07 10:37:12;;;;;;;19.95;10.82;;;;;;;15.23;61.54;100444.59;4437712;32;33552;-83
2023/01/07 10:40:10;;;;;;;16.65;9.13;;;;;;;17.86;50.33;100430.09;4453468;32;33140;-83
2023/01/07 10:42:40;;;;;;;13.90;8.70;;;;;;;16.99;52.08;100433.81;4453161;32;34014;-83
2023/01/07 10:45:17;;;;;;;16.00;9.13;;;;;;;16.77;52.98;100439.25;4450883;32;32274;-83
2023/01/07 10:48:16;;;;;;;15.32;8.77;;;;;;;16.80;53.30;100431.47;4439014;32;33658;-83
2023/01/07 10:51:07;;;;;;;15.90;8.73;;;;;;;16.69;52.92;100421.59;4452621;32;34827;-83
2023/01/07 10:53:56;;;;;;;13.55;7.45;;;;;;;17.18;52.37;100418.66;4446138;32;34155;-84
2023/01/07 10:56:28;;;;;;;16.25;8.68;;;;;;;16.45;53.42;100418.22;4452847;32;33498;-84
2023/01/07 10:58:55;;;;;;;13.23;8.13;;;;;;;16.81;53.21;100414.94;4438339;32;32519;-84
2023/01/07 11:01:26;;;;;;;11.35;7.32;;;;;;;17.06;52.36;100411.34;4454855;32;33453;-83
2023/01/07 11:03:55;;;;;;;11.57;6.57;;;;;;;16.68;53.00;100411.94;4452756;32;36339;-83
2023/01/07 11:06:33;;;;;;;10.52;6.95;;;;;;;16.83;52.69;100402.84;4439534;32;34318;-84
2023/01/07 11:09:04;;;;;;;14.23;6.82;;;;;;;17.02;52.30;100407.75;4439520;32;34442;-83
2023/01/07 11:11:32;;;;;;;11.90;6.60;;;;;;;17.43;51.67;100392.28;4448253;32;33772;-85
2023/01/07 11:14:09;;;;;;;14.23;7.22;;;;;;;18.07;49.48;100386.91;4435808;32;33696;-83
2023/01/07 11:16:48;;;;;;;13.23;8.77;;;;;;;18.04;50.22;100387.72;4459240;32;33183;-84
2023/01/07 11:19:15;;;;;;;17.00;10.73;;;;;;;17.22;52.48;100391.69;4448917;32;34688;-83
2023/01/07 11:21:47;;;;;;;19.83;11.57;;;;;;;17.74;51.13;100382.59;4441571;32;34848;-83
2023/01/07 11:24:26;;;;;;;20.70;12.90;;;;;;;17.24;52.32;100387.41;4445691;32;34330;-83
2023/01/07 11:27:13;;;;;;;22.02;12.95;;;;;;;17.80;50.32;100376.63;4451438;32;33779;-84
2023/01/07 11:29:45;;;;;;;21.73;13.77;;;;;;;17.56;51.34;100376.88;4438400;32;33977;-83
2023/01/07 11:32:24;;;;;;;23.40;13.52;;;;;;;17.99;49.96;100377.97;4437167;32;33888;-84
2023/01/07 11:35:00;;;;;;;25.92;14.80;;;;;;;17.67;50.19;100365.84;4430612;32;34371;-86
2023/01/07 11:37:37;;;;;;;22.67;15.02;;;;;;;18.16;49.10;100370.53;4451843;32;34395;-87
2023/01/07 11:40:26;;;;;;;23.75;15.10;;;;;;;18.26;48.60;100373.38;4449940;32;33780;-86
2023/01/07 11:42:58;;;;;;;25.08;16.52;;;;;;;17.87;48.99;100368.97;4420335;32;33928;-85
2023/01/07 11:45:47;;;;;;;28.83;15.98;;;;;;;17.93;49.13;100372.59;4449424;32;33110;-84
2023/01/07 11:48:37;;;;;;;27.58;17.15;;;;;;;17.99;48.80;100373.63;4431926;32;32149;-85
2023/01/07 11:51:09;;;;;;;23.42;16.45;;;;;;;18.33;48.26;100363.94;4424685;32;33240;-83